createdAt,value
2018-02-02T00:01:11.577Z,28.47
2018-02-02T00:03:38.955Z,28.48
2018-02-02T00:06:06.353Z,28.51
2018-02-02T00:08:33.764Z,28.47
2018-02-02T00:11:01.169Z,28.49
2018-02-02T00:13:28.551Z,28.58
2018-02-02T00:15:55.956Z,28.50
2018-02-02T00:18:23.317Z,28.48
2018-02-02T00:20:50.738Z,28.55
2018-02-02T00:23:18.165Z,28.60
2018-02-02T00:25:45.537Z,28.56
2018-02-02T00:28:13.032Z,28.56
2018-02-02T00:30:40.535Z,28.61
2018-02-02T00:33:07.988Z,28.57
2018-02-02T00:35:35.406Z,28.55
2018-02-02T00:38:02.785Z,28.62
2018-02-02T00:40:30.146Z,28.62
2018-02-02T00:42:57.546Z,28.74
2018-02-02T00:45:25.131Z,28.68
2018-02-02T00:47:52.542Z,28.62
2018-02-02T00:50:20.007Z,28.77
2018-02-02T00:52:47.422Z,28.74
2018-02-02T00:55:14.822Z,28.74
2018-02-02T00:57:42.245Z,28.76
2018-02-02T01:00:09.584Z,28.73
2018-02-02T01:02:36.950Z,28.74
2018-02-02T01:05:04.391Z,28.85
2018-02-02T01:07:31.811Z,28.74
2018-02-02T01:09:59.178Z,28.78
2018-02-02T01:12:26.553Z,28.80
2018-02-02T01:14:53.946Z,28.85
2018-02-02T01:17:21.359Z,28.86
2018-02-02T01:19:48.764Z,28.85
2018-02-02T01:22:16.126Z,28.87
2018-02-02T01:24:43.525Z,28.86
2018-02-02T01:27:10.964Z,28.86
2018-02-02T01:29:38.336Z,28.91
2018-02-02T01:32:05.760Z,29.02
2018-02-02T01:34:33.110Z,29.02
2018-02-02T01:37:00.480Z,28.99
2018-02-02T01:39:27.881Z,29.17
2018-02-02T01:41:55.384Z,29.04
2018-02-02T01:44:22.770Z,29.02
2018-02-02T01:46:50.218Z,29.08
2018-02-02T01:49:17.639Z,29.10
2018-02-02T01:51:45.047Z,29.07
2018-02-02T01:54:12.476Z,29.10
2018-02-02T01:56:39.832Z,29.00
2018-02-02T01:59:07.202Z,29.07
2018-02-02T02:01:34.599Z,29.14
2018-02-02T02:04:02.063Z,28.91
2018-02-02T02:06:29.460Z,29.11
2018-02-02T02:08:56.876Z,29.22
2018-02-02T02:11:24.265Z,29.03
2018-02-02T02:13:51.626Z,29.27
2018-02-02T02:16:19.030Z,29.22
2018-02-02T02:18:46.465Z,29.18
2018-02-02T02:21:13.875Z,29.30
2018-02-02T02:23:41.404Z,29.27
2018-02-02T02:26:08.770Z,29.17
2018-02-02T02:28:36.136Z,29.24
2018-02-02T02:31:03.524Z,29.05
2018-02-02T02:33:30.914Z,28.97
2018-02-02T02:35:58.271Z,28.99
2018-02-02T02:38:25.771Z,29.03
2018-02-02T02:40:53.258Z,28.83
2018-02-02T02:43:20.625Z,28.92
2018-02-02T02:45:47.994Z,28.79
2018-02-02T02:48:15.414Z,28.72
2018-02-02T02:50:42.775Z,28.70
2018-02-02T02:53:10.167Z,28.61
2018-02-02T02:55:37.510Z,28.83
2018-02-02T02:58:04.898Z,28.59
2018-02-02T03:00:32.300Z,28.52
2018-02-02T03:02:59.771Z,28.65
2018-02-02T03:05:27.122Z,28.46
2018-02-02T03:07:54.498Z,28.69
2018-02-02T03:10:21.951Z,28.46
2018-02-02T03:12:49.355Z,28.53
2018-02-02T03:15:16.735Z,28.46
2018-02-02T03:17:44.131Z,28.43
2018-02-02T03:20:11.582Z,28.46
2018-02-02T03:22:38.925Z,28.41
2018-02-02T03:25:06.317Z,28.51
2018-02-02T03:27:33.654Z,28.48
2018-02-02T03:30:01.045Z,28.43
2018-02-02T03:32:28.446Z,28.49
2018-02-02T03:34:55.854Z,28.47
2018-02-02T03:37:23.243Z,28.42
2018-02-02T03:39:50.582Z,28.43
2018-02-02T03:42:17.972Z,28.41
2018-02-02T03:44:45.327Z,28.42
2018-02-02T03:47:12.738Z,28.45
2018-02-02T03:49:40.077Z,28.41
2018-02-02T03:52:07.453Z,28.33
2018-02-02T03:54:34.851Z,28.28
2018-02-02T03:57:02.201Z,28.38
2018-02-02T03:59:29.621Z,28.31
2018-02-02T04:01:56.973Z,28.28
2018-02-02T04:04:24.393Z,28.39
2018-02-02T04:06:51.758Z,28.38
2018-02-02T04:09:19.147Z,28.29
2018-02-02T04:11:46.523Z,28.38
2018-02-02T04:14:13.867Z,28.29
2018-02-02T04:16:41.258Z,28.23
2018-02-02T04:19:08.614Z,28.16
2018-02-02T04:21:35.955Z,28.12
2018-02-02T04:24:03.350Z,28.05
2018-02-02T04:26:30.729Z,27.87
2018-02-02T04:28:58.118Z,27.90
2018-02-02T04:31:25.570Z,27.89
2018-02-02T04:33:52.968Z,27.81
2018-02-02T04:36:20.379Z,27.93
2018-02-02T04:38:47.789Z,27.87
2018-02-02T04:41:15.224Z,27.85
2018-02-02T04:43:42.698Z,27.73
2018-02-02T04:46:10.131Z,27.61
2018-02-02T04:48:37.572Z,27.65
2018-02-02T04:51:04.965Z,27.65
2018-02-02T04:53:32.448Z,27.64
2018-02-02T04:55:59.862Z,27.58
2018-02-02T04:58:27.336Z,27.41
2018-02-02T05:00:54.787Z,27.57
2018-02-02T05:03:22.169Z,27.37
2018-02-02T05:05:49.551Z,27.35
2018-02-02T05:08:16.996Z,27.44
2018-02-02T05:10:44.430Z,27.43
2018-02-02T05:13:11.827Z,27.45
2018-02-02T05:15:39.271Z,27.47
2018-02-02T05:18:06.694Z,27.38
2018-02-02T05:20:34.117Z,27.36
2018-02-02T05:23:01.516Z,27.38
2018-02-02T05:25:28.906Z,27.33
2018-02-02T05:27:56.381Z,27.20
2018-02-02T05:30:23.751Z,27.36
2018-02-02T05:32:51.141Z,27.25
2018-02-02T05:35:18.560Z,27.37
2018-02-02T05:37:45.980Z,27.22
2018-02-02T05:40:13.378Z,27.17
2018-02-02T05:42:40.814Z,27.23
2018-02-02T05:45:08.261Z,27.25
2018-02-02T05:47:35.644Z,27.20
2018-02-02T05:50:03.085Z,27.15
2018-02-02T05:52:30.482Z,27.16
2018-02-02T05:54:58.007Z,27.28
2018-02-02T05:57:25.407Z,27.31
2018-02-02T05:59:52.875Z,27.33
2018-02-02T06:02:20.281Z,27.21
2018-02-02T06:04:47.689Z,27.11
2018-02-02T06:07:15.206Z,27.29
2018-02-02T06:09:42.638Z,27.34
2018-02-02T06:12:10.070Z,27.37
2018-02-02T06:14:37.474Z,27.27
2018-02-02T06:17:04.922Z,27.42
2018-02-02T06:19:32.308Z,27.29
2018-02-02T06:22:00.096Z,27.40
2018-02-02T06:24:27.552Z,27.42
2018-02-02T06:26:54.977Z,27.34
2018-02-02T06:29:35.602Z,27.50
2018-02-02T06:32:03.173Z,27.53
2018-02-02T06:34:30.817Z,27.45
2018-02-02T06:36:58.375Z,27.33
2018-02-02T06:39:26.689Z,27.35
2018-02-02T06:41:55.264Z,27.61
2018-02-02T06:44:23.397Z,27.78
2018-02-02T06:46:51.067Z,27.86
2018-02-02T06:49:18.752Z,27.61
2018-02-02T06:51:48.196Z,27.69
2018-02-02T06:54:16.950Z,27.71
2018-02-02T06:56:44.557Z,27.87
2018-02-02T06:59:12.347Z,27.62
2018-02-02T07:01:42.965Z,27.66
2018-02-02T07:04:12.545Z,27.67
2018-02-02T07:06:43.053Z,27.55
2018-02-02T07:09:19.287Z,27.50
2018-02-02T07:11:46.990Z,27.63
2018-02-02T07:14:14.686Z,27.60
2018-02-02T07:16:42.660Z,27.28
2018-02-02T07:19:10.302Z,27.49
2018-02-02T07:21:38.059Z,27.72
2018-02-02T07:24:05.642Z,27.50
2018-02-02T07:26:36.520Z,29.27
2018-02-02T07:29:04.214Z,27.69
2018-02-02T07:31:32.687Z,27.66
2018-02-02T07:34:00.365Z,28.02
2018-02-02T07:36:28.428Z,28.17
2018-02-02T07:38:56.364Z,28.43
2018-02-02T07:54:34.747Z,29.49
2018-02-02T07:57:02.525Z,29.91
2018-02-02T07:59:30.338Z,29.84
2018-02-02T08:01:59.559Z,29.78
2018-02-02T08:04:27.455Z,29.89
2018-02-02T08:06:54.884Z,29.76
2018-02-02T08:09:22.328Z,30.24
2018-02-02T08:11:49.854Z,29.89
2018-02-02T08:14:17.506Z,30.13
2018-02-02T08:16:44.974Z,30.13
2018-02-02T08:19:12.392Z,30.16
2018-02-02T08:21:39.896Z,30.26
2018-02-02T08:24:07.266Z,30.82
2018-02-02T08:26:34.798Z,30.59
2018-02-02T08:29:02.254Z,30.45
2018-02-02T08:31:29.897Z,30.75
2018-02-02T08:33:57.335Z,30.72
2018-02-02T08:36:24.832Z,30.84
2018-02-02T08:38:52.292Z,30.72
2018-02-02T08:41:19.683Z,31.05
2018-02-02T08:43:47.133Z,31.02
2018-02-02T08:46:14.542Z,30.88
2018-02-02T08:48:42.085Z,31.61
2018-02-02T08:51:09.636Z,31.18
2018-02-02T08:53:37.127Z,31.20
2018-02-02T08:56:04.624Z,31.18
2018-02-02T08:58:32.067Z,31.39
2018-02-02T09:00:59.667Z,31.53
2018-02-02T09:03:27.135Z,31.41
2018-02-02T09:05:54.752Z,31.37
2018-02-02T09:08:22.298Z,31.49
2018-02-02T09:10:49.689Z,31.57
2018-02-02T09:13:17.181Z,31.63
2018-02-02T09:15:44.709Z,31.68
2018-02-02T09:18:12.176Z,31.87
2018-02-02T09:20:39.692Z,31.91
2018-02-02T09:23:07.244Z,32.18
2018-02-02T09:25:34.722Z,32.01
2018-02-02T09:28:02.415Z,32.15
2018-02-02T09:30:29.929Z,32.10
2018-02-02T09:32:57.497Z,31.95
2018-02-02T09:35:24.960Z,32.24
2018-02-02T09:37:52.358Z,32.32
2018-02-02T09:40:20.181Z,32.34
2018-02-02T09:42:47.670Z,32.25
2018-02-02T09:45:15.203Z,32.20
2018-02-02T09:47:42.638Z,32.31
2018-02-02T09:50:10.035Z,32.31
2018-02-02T09:52:37.490Z,32.45
2018-02-02T09:55:04.949Z,32.47
2018-02-02T09:57:32.357Z,32.83
2018-02-02T09:59:59.839Z,32.61
2018-02-02T10:02:27.298Z,32.69
2018-02-02T10:04:54.763Z,32.75
2018-02-02T10:07:22.167Z,32.63
2018-02-02T10:09:49.541Z,32.76
2018-02-02T10:12:16.952Z,32.91
2018-02-02T10:14:44.386Z,32.66
2018-02-02T10:17:11.780Z,32.67
2018-02-02T10:19:39.251Z,32.87
2018-02-02T10:22:06.642Z,32.66
2018-02-02T10:24:34.284Z,32.92
2018-02-02T10:27:01.964Z,33.38
2018-02-02T10:29:29.388Z,33.33
2018-02-02T10:31:56.846Z,33.18
2018-02-02T10:34:24.663Z,33.05
2018-02-02T10:36:52.164Z,32.72
2018-02-02T10:39:19.627Z,32.66
2018-02-02T10:41:47.068Z,32.99
2018-02-02T10:44:14.500Z,32.87
2018-02-02T10:46:41.915Z,32.86
2018-02-02T10:49:09.366Z,32.81
2018-02-02T10:51:36.814Z,32.86
2018-02-02T10:54:04.290Z,32.84
2018-02-02T10:56:31.710Z,32.87
2018-02-02T10:58:59.188Z,32.95
2018-02-02T11:01:26.652Z,32.88
2018-02-02T11:03:54.121Z,33.14
2018-02-02T11:06:21.623Z,33.21
2018-02-02T11:08:49.195Z,33.63
2018-02-02T11:11:16.736Z,32.95
2018-02-02T11:13:44.171Z,33.03
2018-02-02T11:16:11.619Z,33.91
2018-02-02T11:18:39.122Z,33.00
2018-02-02T11:21:06.625Z,32.73
2018-02-02T11:23:34.233Z,32.99
2018-02-02T11:26:04.835Z,32.79
2018-02-02T11:28:32.255Z,32.74
2018-02-02T11:30:59.801Z,32.79
2018-02-02T11:33:27.160Z,32.80
2018-02-02T11:35:54.634Z,32.84
2018-02-02T11:38:22.083Z,32.99
2018-02-02T11:40:49.555Z,32.84
2018-02-02T11:43:18.049Z,32.67
2018-02-02T11:45:45.496Z,33.13
2018-02-02T11:48:12.932Z,32.54
2018-02-02T11:50:40.501Z,32.45
2018-02-02T11:53:07.920Z,32.67
2018-02-02T11:55:35.326Z,32.84
2018-02-02T11:58:02.850Z,32.88
2018-02-02T12:00:30.338Z,33.11
2018-02-02T12:02:57.768Z,33.09
2018-02-02T12:05:25.192Z,32.89
2018-02-02T12:07:52.675Z,32.88
2018-02-02T12:10:20.108Z,33.00
2018-02-02T12:12:47.621Z,32.87
2018-02-02T12:15:15.084Z,32.95
2018-02-02T12:17:42.567Z,33.05
2018-02-02T12:20:10.026Z,33.19
2018-02-02T12:22:41.480Z,32.93
2018-02-02T12:25:08.873Z,32.83
2018-02-02T12:27:36.348Z,32.86
2018-02-02T12:30:03.775Z,33.00
2018-02-02T12:32:31.215Z,32.90
2018-02-02T12:34:58.594Z,32.82
2018-02-02T12:37:26.037Z,32.83
2018-02-02T12:39:53.435Z,32.69
2018-02-02T12:42:20.833Z,32.82
2018-02-02T12:44:48.252Z,32.79
2018-02-02T12:47:15.836Z,32.76
2018-02-02T12:49:43.210Z,32.54
2018-02-02T12:52:10.651Z,32.69
2018-02-02T12:54:38.135Z,32.55
2018-02-02T12:57:05.570Z,32.60
2018-02-02T12:59:32.985Z,32.47
2018-02-02T13:02:02.049Z,32.57
2018-02-02T13:04:29.566Z,32.37
2018-02-02T13:06:56.966Z,32.45
2018-02-02T13:09:24.407Z,32.49
2018-02-02T13:11:51.915Z,33.73
2018-02-02T13:14:19.303Z,32.75
2018-02-02T13:16:46.693Z,32.96
2018-02-02T13:19:14.166Z,32.75
2018-02-02T13:21:41.631Z,32.17
2018-02-02T13:24:09.129Z,32.29
2018-02-02T13:26:36.554Z,32.18
2018-02-02T13:29:03.990Z,32.18
2018-02-02T13:31:31.404Z,32.06
2018-02-02T13:33:58.874Z,32.20
2018-02-02T13:36:26.532Z,32.22
2018-02-02T13:38:53.914Z,32.02
2018-02-02T13:41:21.330Z,31.60
2018-02-02T13:43:48.750Z,31.80
2018-02-02T13:46:16.207Z,31.74
2018-02-02T13:48:43.645Z,32.02
2018-02-02T13:51:11.055Z,31.87
2018-02-02T13:53:38.536Z,31.96
2018-02-02T13:56:06.172Z,32.05
2018-02-02T13:58:33.620Z,31.80
2018-02-02T14:01:01.063Z,31.67
2018-02-02T14:03:28.570Z,32.02
2018-02-02T14:05:56.118Z,32.57
2018-02-02T14:08:23.542Z,31.83
2018-02-02T14:10:51.000Z,31.84
2018-02-02T14:13:18.422Z,31.24
2018-02-02T14:15:45.970Z,32.52
2018-02-02T14:18:13.393Z,32.26
2018-02-02T14:20:40.863Z,31.67
2018-02-02T14:23:08.307Z,32.13
2018-02-02T14:25:35.723Z,31.79
2018-02-02T14:28:03.159Z,31.76
2018-02-02T14:30:30.679Z,32.02
2018-02-02T14:32:58.103Z,31.70
2018-02-02T14:35:25.514Z,31.63
2018-02-02T14:37:52.927Z,31.95
2018-02-02T14:40:20.326Z,31.96
2018-02-02T14:42:47.829Z,31.81
2018-02-02T14:45:15.317Z,31.75
2018-02-02T14:47:42.815Z,31.82
2018-02-02T14:50:10.411Z,32.13
2018-02-02T14:52:37.858Z,31.87
2018-02-02T14:55:05.310Z,32.53
2018-02-02T14:57:32.778Z,32.07
2018-02-02T15:00:00.170Z,32.43
2018-02-02T15:02:27.678Z,32.40
2018-02-02T15:04:55.145Z,32.66
2018-02-02T15:07:22.585Z,32.23
2018-02-02T15:09:50.042Z,32.14
2018-02-02T15:12:17.717Z,31.83
2018-02-02T15:14:45.302Z,31.97
2018-02-02T15:17:12.907Z,31.83
2018-02-02T15:19:41.061Z,31.69
2018-02-02T15:22:08.568Z,31.87
2018-02-02T15:24:36.060Z,31.84
2018-02-02T15:27:03.793Z,31.55
2018-02-02T15:29:33.234Z,31.70
2018-02-02T15:32:00.700Z,31.71
2018-02-02T15:34:28.196Z,31.52
2018-02-02T15:36:55.986Z,31.63
2018-02-02T15:39:23.648Z,31.37
2018-02-02T15:41:51.095Z,31.51
2018-02-02T15:44:18.543Z,31.67
2018-02-02T15:46:46.086Z,31.56
2018-02-02T15:49:13.716Z,31.54
2018-02-02T15:51:41.348Z,31.60
2018-02-02T15:54:09.098Z,31.65
2018-02-02T15:56:36.794Z,31.74
2018-02-02T15:59:04.462Z,31.64
2018-02-02T16:01:32.057Z,31.36
2018-02-02T16:03:59.438Z,31.67
2018-02-02T16:06:27.214Z,31.44
2018-02-02T16:08:54.763Z,31.67
2018-02-02T16:11:22.257Z,31.75
2018-02-02T16:13:49.688Z,31.56
2018-02-02T16:16:17.146Z,31.36
2018-02-02T16:18:44.562Z,31.55
2018-02-02T16:21:12.049Z,31.81
2018-02-02T16:23:40.403Z,31.53
2018-02-02T16:26:07.875Z,31.65
2018-02-02T16:28:35.377Z,31.74
2018-02-02T16:31:02.858Z,31.65
2018-02-02T16:33:30.313Z,31.89
2018-02-02T16:35:57.763Z,31.90
2018-02-02T16:38:25.163Z,31.58
2018-02-02T16:40:52.617Z,31.77
2018-02-02T16:43:19.999Z,31.62
2018-02-02T16:45:47.402Z,31.77
2018-02-02T16:48:14.802Z,31.50
2018-02-02T16:50:42.179Z,31.90
2018-02-02T16:53:09.763Z,31.94
2018-02-02T16:55:37.208Z,31.96
2018-02-02T16:58:04.619Z,31.88
2018-02-02T17:00:32.015Z,31.80
2018-02-02T17:02:59.426Z,31.60
2018-02-02T17:05:26.856Z,31.46
2018-02-02T17:07:54.296Z,31.52
2018-02-02T17:10:21.700Z,31.57
2018-02-02T17:12:51.005Z,31.86
2018-02-02T17:15:19.046Z,31.95
2018-02-02T17:17:46.584Z,31.99
2018-02-02T17:20:13.988Z,31.63
2018-02-02T17:22:41.404Z,32.16
2018-02-02T17:25:08.853Z,31.79
2018-02-02T17:27:36.288Z,31.74
2018-02-02T17:30:03.725Z,32.20
2018-02-02T17:32:31.229Z,32.67
2018-02-02T17:34:58.670Z,32.12
2018-02-02T17:37:26.066Z,32.04
2018-02-02T17:39:53.504Z,32.62
2018-02-02T17:42:20.883Z,32.29
2018-02-02T17:44:48.284Z,32.21
2018-02-02T17:47:15.697Z,32.44
2018-02-02T17:49:43.154Z,31.96
2018-02-02T17:52:10.556Z,32.19
2018-02-02T17:54:38.018Z,31.96
2018-02-02T17:57:05.408Z,32.06
2018-02-02T17:59:32.812Z,31.54
2018-02-02T18:02:00.322Z,31.69
2018-02-02T18:04:27.709Z,31.77
2018-02-02T18:06:55.132Z,32.04
2018-02-02T18:09:22.521Z,31.95
2018-02-02T18:11:49.903Z,31.85
2018-02-02T18:14:17.361Z,31.64
2018-02-02T18:16:44.869Z,31.73
2018-02-02T18:19:12.287Z,31.59
2018-02-02T18:21:39.730Z,31.59
2018-02-02T18:24:07.182Z,31.45
2018-02-02T18:26:34.669Z,31.30
2018-02-02T18:29:02.075Z,31.20
2018-02-02T18:31:29.480Z,31.29
2018-02-02T18:33:56.990Z,31.31
2018-02-02T18:36:24.415Z,31.13
2018-02-02T18:38:51.854Z,31.05
2018-02-02T18:41:19.326Z,31.04
2018-02-02T18:43:46.748Z,30.91
2018-02-02T18:46:14.186Z,30.84
2018-02-02T18:48:41.610Z,30.87
2018-02-02T18:51:09.042Z,30.78
2018-02-02T18:53:36.476Z,30.75
2018-02-02T18:56:03.945Z,31.01
2018-02-02T18:58:31.383Z,30.77
2018-02-02T19:00:58.812Z,30.84
2018-02-02T19:03:26.252Z,30.77
2018-02-02T19:05:53.687Z,30.92
2018-02-02T19:08:21.126Z,30.88
2018-02-02T19:10:48.578Z,30.92
2018-02-02T19:13:15.985Z,30.85
2018-02-02T19:15:43.429Z,30.95
2018-02-02T19:18:10.849Z,30.89
2018-02-02T19:20:38.303Z,30.94
2018-02-02T19:23:05.707Z,30.90
2018-02-02T19:25:33.135Z,30.96
2018-02-02T19:28:00.525Z,31.08
2018-02-02T19:30:27.970Z,31.00
2018-02-02T19:32:55.384Z,30.91
2018-02-02T19:35:23.479Z,30.87
2018-02-02T19:37:50.897Z,30.91
2018-02-02T19:40:18.290Z,30.95
2018-02-02T19:42:45.756Z,30.90
2018-02-02T19:45:13.165Z,30.94
2018-02-02T19:47:40.917Z,30.82
2018-02-02T19:50:08.314Z,30.89
2018-02-02T19:52:35.758Z,30.96
2018-02-02T19:55:03.172Z,30.90
2018-02-02T19:57:30.646Z,30.83
2018-02-02T19:59:58.097Z,30.79
2018-02-02T20:02:25.550Z,30.79
2018-02-02T20:04:53.021Z,30.92
2018-02-02T20:07:20.430Z,30.88
2018-02-02T20:09:47.826Z,30.82
2018-02-02T20:12:15.282Z,30.97
2018-02-02T20:14:42.693Z,31.06
2018-02-02T20:17:10.157Z,30.95
2018-02-02T20:19:37.582Z,30.91
2018-02-02T20:22:05.033Z,31.00
2018-02-02T20:24:32.445Z,31.42
2018-02-02T20:26:59.897Z,31.28
2018-02-02T20:29:27.474Z,31.12
2018-02-02T20:31:54.885Z,31.09
2018-02-02T20:34:22.273Z,31.17
2018-02-02T20:36:49.671Z,31.31
2018-02-02T20:39:17.078Z,31.12
2018-02-02T20:41:44.493Z,31.08
2018-02-02T20:44:11.958Z,31.05
2018-02-02T20:46:39.410Z,31.22
2018-02-02T20:49:06.822Z,31.16
2018-02-02T20:51:34.215Z,31.06
2018-02-02T20:54:01.685Z,31.23
2018-02-02T20:56:29.094Z,31.17
2018-02-02T20:58:56.514Z,31.12
2018-02-02T21:01:23.984Z,31.24
2018-02-02T21:03:51.930Z,31.26
2018-02-02T21:08:52.813Z,31.05
2018-02-02T21:11:20.313Z,31.14
2018-02-02T21:13:47.828Z,31.20
2018-02-02T21:16:15.277Z,31.16
2018-02-02T21:18:42.728Z,31.19
2018-02-02T21:21:10.166Z,31.21
2018-02-02T21:23:37.579Z,31.14
2018-02-02T21:26:04.985Z,31.18
2018-02-02T21:28:32.425Z,31.18
2018-02-02T21:30:59.889Z,31.22
2018-02-02T21:33:27.307Z,31.12
2018-02-02T21:35:54.721Z,31.05
2018-02-02T21:38:22.182Z,31.15
2018-02-02T21:40:49.623Z,31.05
2018-02-02T21:43:17.037Z,31.02
2018-02-02T21:45:44.437Z,31.04
2018-02-02T21:48:11.866Z,31.15
2018-02-02T21:50:39.253Z,31.16
2018-02-02T21:53:06.671Z,31.06
2018-02-02T21:55:34.049Z,31.19
2018-02-02T21:58:01.465Z,31.21
2018-02-02T22:00:28.880Z,31.19
2018-02-02T22:02:56.274Z,31.12
2018-02-02T22:05:23.705Z,31.05
2018-02-02T22:07:51.135Z,31.12
2018-02-02T22:10:18.545Z,31.21
2018-02-02T22:12:45.926Z,31.24
2018-02-02T22:15:13.364Z,31.17
2018-02-02T22:17:40.714Z,31.21
2018-02-02T22:20:08.046Z,31.18
2018-02-02T22:22:35.440Z,31.19
2018-02-02T22:25:02.818Z,31.10
2018-02-02T22:27:30.206Z,31.27
2018-02-02T22:29:57.558Z,31.22
2018-02-02T22:32:24.936Z,31.31
2018-02-02T22:34:52.286Z,31.19
2018-02-02T22:37:19.665Z,31.28
2018-02-02T22:39:47.083Z,31.27
2018-02-02T22:42:14.422Z,31.40
2018-02-02T22:44:41.758Z,31.37
2018-02-02T22:47:09.158Z,31.29
2018-02-02T22:49:36.537Z,31.30
2018-02-02T22:52:03.942Z,31.41
2018-02-02T22:54:31.296Z,31.36
2018-02-02T22:56:58.677Z,31.27
2018-02-02T22:59:26.015Z,31.31
2018-02-02T23:01:53.457Z,31.47
2018-02-02T23:04:20.842Z,31.49
2018-02-02T23:06:48.263Z,31.45
2018-02-02T23:09:15.658Z,31.43
2018-02-02T23:11:42.998Z,31.39
2018-02-02T23:14:10.371Z,31.39
2018-02-02T23:16:37.732Z,31.31
2018-02-02T23:19:05.156Z,31.45
2018-02-02T23:21:32.519Z,31.35
2018-02-02T23:23:59.875Z,31.44
2018-02-02T23:26:27.266Z,31.52
2018-02-02T23:28:54.602Z,31.53
2018-02-02T23:31:21.959Z,31.47
2018-02-02T23:33:49.345Z,31.45
2018-02-02T23:36:16.706Z,31.44
2018-02-02T23:38:44.054Z,31.51
2018-02-02T23:41:11.511Z,31.56
2018-02-02T23:43:38.875Z,31.57
2018-02-02T23:46:06.245Z,31.70
2018-02-02T23:48:33.646Z,31.51
2018-02-02T23:51:01.009Z,31.53
2018-02-02T23:53:28.414Z,31.62
2018-02-02T23:55:55.818Z,31.58
2018-02-02T23:58:23.194Z,31.63
